createdAt,value
2023-03-26T00:01:29.767Z,8.48
2023-03-26T00:03:58.025Z,9.52
2023-03-26T00:06:28.874Z,9.55
2023-03-26T00:08:58.381Z,10.32
2023-03-26T00:11:27.810Z,12.25
2023-03-26T00:13:58.950Z,11.05
2023-03-26T00:16:28.498Z,10.38
2023-03-26T00:18:55.982Z,11.23
2023-03-26T00:21:28.420Z,10.98
2023-03-26T00:24:04.551Z,9.38
2023-03-26T00:26:33.788Z,11.45
2023-03-26T00:29:03.368Z,9.80
2023-03-26T00:31:30.843Z,11.07
2023-03-26T00:33:57.763Z,13.00
2023-03-26T00:36:25.867Z,16.05
2023-03-26T00:38:54.051Z,12.48
2023-03-26T00:41:25.752Z,14.32
2023-03-26T00:43:58.075Z,10.68
2023-03-26T00:46:27.956Z,13.68
2023-03-26T00:48:58.912Z,9.85
2023-03-26T00:51:27.021Z,15.65
2023-03-26T00:53:54.014Z,11.25
2023-03-26T00:56:20.869Z,10.43
2023-03-26T00:58:50.188Z,12.77
2023-03-26T01:01:27.868Z,7.55
2023-03-26T01:04:08.778Z,13.60
2023-03-26T01:06:42.265Z,9.27
2023-03-26T01:09:21.476Z,9.65
2023-03-26T01:11:49.680Z,7.35
2023-03-26T01:14:23.688Z,8.18
2023-03-26T01:16:55.255Z,10.82
2023-03-26T01:19:38.266Z,10.68
2023-03-26T01:22:12.217Z,11.02
2023-03-26T01:24:43.719Z,11.07
2023-03-26T01:27:34.615Z,10.63
2023-03-26T01:30:27.834Z,11.93
2023-03-26T01:32:59.306Z,16.98
2023-03-26T01:35:47.125Z,14.07
2023-03-26T01:38:23.314Z,10.25
2023-03-26T01:41:18.228Z,12.32
2023-03-26T01:44:09.781Z,9.55
2023-03-26T01:46:37.020Z,10.38
2023-03-26T01:49:06.806Z,9.43
2023-03-26T01:51:36.809Z,11.85
2023-03-26T01:54:08.787Z,13.25
2023-03-26T01:57:03.502Z,12.95
2023-03-26T01:59:45.533Z,10.18
2023-03-26T02:02:15.797Z,8.48
2023-03-26T02:05:12.934Z,8.82
2023-03-26T02:07:55.979Z,7.43
2023-03-26T02:10:31.892Z,6.97
2023-03-26T02:12:59.796Z,11.05
2023-03-26T02:15:26.778Z,6.35
2023-03-26T02:17:54.306Z,7.93
2023-03-26T02:20:21.797Z,9.27
2023-03-26T02:22:49.101Z,8.57
2023-03-26T02:25:21.240Z,7.68
2023-03-26T02:27:49.796Z,9.32
2023-03-26T02:30:20.077Z,10.10
2023-03-26T02:32:46.944Z,8.35
2023-03-26T02:35:13.831Z,7.50
2023-03-26T02:37:42.196Z,6.35
2023-03-26T02:40:11.787Z,9.40
2023-03-26T02:42:39.097Z,5.57
2023-03-26T02:45:07.171Z,6.35
2023-03-26T02:47:34.196Z,5.70
2023-03-26T02:50:01.544Z,5.10
2023-03-26T02:52:28.574Z,6.15
2023-03-26T02:54:56.288Z,8.95
2023-03-26T02:57:23.909Z,5.25
2023-03-26T02:59:52.863Z,5.55
2023-03-26T03:02:22.940Z,6.10
2023-03-26T03:04:51.973Z,4.25
2023-03-26T03:07:18.931Z,6.32
2023-03-26T03:09:45.786Z,6.57
2023-03-26T03:12:12.624Z,5.60
2023-03-26T03:14:40.882Z,6.60
2023-03-26T03:17:07.903Z,5.55
2023-03-26T03:19:35.110Z,4.40
2023-03-26T03:22:01.881Z,9.10
2023-03-26T03:24:28.743Z,8.38
2023-03-26T03:26:56.857Z,7.18
2023-03-26T03:29:24.582Z,6.55
2023-03-26T03:31:51.440Z,7.72
2023-03-26T03:34:18.642Z,7.53
2023-03-26T03:36:48.437Z,9.48
2023-03-26T03:39:15.637Z,10.88
2023-03-26T03:41:42.966Z,7.30
2023-03-26T03:44:09.778Z,8.05
2023-03-26T03:46:36.718Z,5.68
2023-03-26T03:49:03.846Z,7.55
2023-03-26T03:51:31.309Z,7.63
2023-03-26T03:53:58.183Z,7.00
2023-03-26T03:56:26.254Z,6.93
2023-03-26T03:58:53.500Z,7.57
2023-03-26T04:01:22.881Z,5.88
2023-03-26T04:03:50.147Z,4.15
2023-03-26T04:06:20.153Z,3.80
2023-03-26T04:08:47.382Z,4.38
2023-03-26T04:11:14.797Z,4.13
2023-03-26T04:13:41.704Z,4.30
2023-03-26T04:16:09.815Z,4.50
2023-03-26T04:18:37.614Z,5.90
2023-03-26T04:21:05.348Z,2.00
2023-03-26T04:23:32.527Z,2.95
2023-03-26T04:26:06.205Z,1.70
2023-03-26T04:28:42.421Z,7.07
2023-03-26T04:31:15.852Z,5.72
2023-03-26T04:33:48.499Z,3.60
2023-03-26T04:36:16.717Z,5.35
2023-03-26T04:38:48.988Z,6.90
2023-03-26T04:41:16.176Z,2.53
2023-03-26T04:43:47.431Z,3.50
2023-03-26T04:46:14.876Z,4.63
2023-03-26T04:48:42.288Z,3.53
2023-03-26T04:51:17.940Z,5.22
2023-03-26T04:53:54.062Z,7.47
2023-03-26T04:56:39.773Z,9.48
2023-03-26T04:59:10.662Z,8.25
2023-03-26T05:01:37.797Z,9.25
2023-03-26T05:04:05.009Z,8.60
2023-03-26T05:06:34.405Z,7.32
2023-03-26T05:09:04.646Z,6.95
2023-03-26T05:11:31.546Z,7.65
2023-03-26T05:13:58.322Z,8.32
2023-03-26T05:16:25.969Z,12.07
2023-03-26T05:18:53.059Z,11.80
2023-03-26T05:21:20.789Z,13.98
2023-03-26T05:23:47.781Z,12.30
2023-03-26T05:26:15.112Z,7.13
2023-03-26T05:28:41.997Z,7.10
2023-03-26T05:31:09.769Z,8.15
2023-03-26T05:33:37.198Z,4.45
2023-03-26T05:36:09.591Z,5.03
2023-03-26T05:38:37.138Z,4.72
2023-03-26T05:41:06.818Z,4.22
2023-03-26T05:43:34.472Z,6.95
2023-03-26T05:46:01.645Z,10.27
2023-03-26T05:48:28.791Z,8.98
2023-03-26T05:50:57.866Z,9.30
2023-03-26T05:53:26.836Z,6.00
2023-03-26T05:56:00.128Z,8.23
2023-03-26T05:58:29.024Z,7.28
2023-03-26T06:01:06.015Z,9.88
2023-03-26T06:03:34.287Z,12.52
2023-03-26T06:06:01.577Z,8.13
2023-03-26T06:08:29.399Z,8.07
2023-03-26T06:11:01.217Z,7.20
2023-03-26T06:13:28.537Z,8.25
2023-03-26T06:15:56.226Z,12.13
2023-03-26T06:18:23.498Z,8.00
2023-03-26T06:20:51.270Z,6.57
2023-03-26T06:23:19.093Z,6.05
2023-03-26T06:25:46.024Z,5.60
2023-03-26T06:28:13.777Z,3.80
2023-03-26T06:30:40.631Z,3.70
2023-03-26T06:33:08.248Z,6.57
2023-03-26T06:35:35.418Z,3.95
2023-03-26T06:38:03.152Z,3.85
2023-03-26T06:40:30.758Z,5.53
2023-03-26T06:43:08.874Z,2.47
2023-03-26T06:45:38.327Z,3.00
2023-03-26T06:48:05.833Z,3.83
2023-03-26T06:50:33.107Z,4.03
2023-03-26T06:53:00.125Z,4.15
2023-03-26T06:55:27.178Z,3.95
2023-03-26T06:57:55.803Z,6.95
2023-03-26T07:00:22.745Z,3.13
2023-03-26T07:02:50.020Z,2.88
2023-03-26T07:05:17.065Z,5.45
2023-03-26T07:07:46.745Z,4.47
2023-03-26T07:10:14.957Z,3.95
2023-03-26T07:12:42.592Z,3.15
2023-03-26T07:15:10.435Z,3.00
2023-03-26T07:17:37.802Z,2.22
2023-03-26T07:20:08.696Z,6.20
2023-03-26T07:22:36.563Z,3.97
2023-03-26T07:25:04.510Z,4.47
2023-03-26T07:27:37.552Z,3.38
2023-03-26T07:30:06.505Z,3.50
2023-03-26T07:32:43.438Z,6.22
2023-03-26T07:35:22.443Z,2.75
2023-03-26T07:38:18.629Z,5.45
2023-03-26T07:40:57.401Z,4.60
2023-03-26T07:43:24.238Z,4.22
2023-03-26T07:45:53.326Z,3.92
2023-03-26T07:48:29.733Z,5.88
2023-03-26T07:50:57.280Z,4.15
2023-03-26T07:53:24.648Z,4.45
2023-03-26T07:56:00.634Z,4.78
2023-03-26T07:58:27.900Z,3.70
2023-03-26T08:01:10.603Z,4.28
2023-03-26T08:04:00.920Z,5.25
2023-03-26T08:07:05.283Z,4.22
2023-03-26T08:09:58.544Z,4.78
2023-03-26T08:12:57.834Z,3.90
2023-03-26T08:15:46.069Z,3.30
2023-03-26T08:18:19.430Z,5.05
2023-03-26T08:20:54.355Z,3.35
2023-03-26T08:23:50.772Z,3.63
2023-03-26T08:26:29.616Z,2.35
2023-03-26T08:29:26.733Z,3.42
2023-03-26T08:31:54.899Z,1.92
2023-03-26T08:34:21.740Z,4.15
2023-03-26T08:36:48.651Z,5.35
2023-03-26T08:39:15.531Z,4.35
2023-03-26T08:42:47.227Z,6.22
2023-03-26T08:45:51.442Z,4.18
2023-03-26T08:48:54.060Z,5.25
2023-03-26T08:51:59.026Z,4.07
2023-03-26T08:54:40.980Z,3.60
2023-03-26T08:57:29.462Z,5.47
2023-03-26T09:00:03.095Z,6.60
2023-03-26T09:03:06.635Z,6.57
2023-03-26T09:05:48.662Z,9.48
2023-03-26T09:08:37.105Z,9.15
2023-03-26T09:11:46.084Z,4.28
2023-03-26T09:14:22.109Z,4.97
2023-03-26T09:16:50.226Z,3.97
2023-03-26T09:19:37.489Z,7.45
2023-03-26T09:22:48.955Z,5.72
2023-03-26T09:25:46.492Z,4.30
2023-03-26T09:28:31.476Z,4.28
2023-03-26T09:31:10.759Z,5.18
2023-03-26T09:34:08.310Z,3.35
2023-03-26T09:36:47.549Z,2.63
2023-03-26T09:39:28.034Z,4.00
2023-03-26T09:42:31.873Z,3.10
2023-03-26T09:45:09.096Z,4.60
2023-03-26T09:47:36.025Z,5.55
2023-03-26T09:50:33.896Z,3.58
2023-03-26T09:53:19.395Z,4.30
2023-03-26T09:55:49.377Z,6.40
2023-03-26T09:58:38.784Z,2.65
2023-03-26T10:01:40.694Z,4.13
2023-03-26T10:04:27.376Z,2.45
2023-03-26T10:07:03.951Z,3.90
2023-03-26T10:10:05.862Z,3.17
2023-03-26T10:12:39.258Z,5.82
2023-03-26T10:15:27.327Z,5.15
2023-03-26T10:18:27.120Z,2.88
2023-03-26T10:21:36.038Z,6.07
2023-03-26T10:24:24.947Z,7.72
2023-03-26T10:27:23.060Z,2.95
2023-03-26T10:30:00.529Z,2.22
2023-03-26T10:32:27.411Z,3.15
2023-03-26T10:35:00.061Z,1.65
2023-03-26T10:37:36.797Z,2.20
2023-03-26T10:40:28.112Z,2.05
2023-03-26T10:43:28.994Z,3.30
2023-03-26T10:46:04.979Z,2.42
2023-03-26T10:48:54.199Z,6.30
2023-03-26T10:51:34.694Z,1.73
2023-03-26T10:54:22.284Z,2.55
2023-03-26T10:56:54.417Z,3.05
2023-03-26T10:59:22.203Z,2.97
2023-03-26T11:01:58.124Z,1.25
2023-03-26T11:04:34.160Z,4.97
2023-03-26T11:07:30.038Z,1.63
2023-03-26T11:10:11.972Z,2.08
2023-03-26T11:13:09.162Z,4.28
2023-03-26T11:16:03.573Z,2.08
2023-03-26T11:18:55.685Z,1.85
2023-03-26T11:21:31.848Z,3.17
2023-03-26T11:24:16.994Z,2.20
2023-03-26T11:27:20.891Z,2.72
2023-03-26T11:30:08.116Z,3.28
2023-03-26T11:32:48.338Z,2.28
2023-03-26T11:35:40.858Z,1.60
2023-03-26T11:38:40.240Z,1.70
2023-03-26T11:41:23.692Z,3.33
2023-03-26T11:44:04.018Z,7.38
2023-03-26T11:46:33.797Z,2.08
2023-03-26T11:49:06.876Z,18.23
2023-03-26T11:51:41.295Z,2.70
2023-03-26T11:54:11.540Z,16.55
2023-03-26T11:56:41.900Z,5.85
2023-03-26T11:59:53.264Z,2.88
2023-03-26T12:02:26.120Z,1.13
2023-03-26T12:05:12.215Z,2.42
2023-03-26T12:07:57.376Z,2.65
2023-03-26T12:10:27.674Z,2.00
2023-03-26T12:12:58.263Z,0.98
2023-03-26T12:15:26.205Z,1.23
2023-03-26T12:17:57.063Z,1.60
2023-03-26T12:20:32.073Z,3.15
2023-03-26T12:23:01.169Z,1.80
2023-03-26T12:25:39.015Z,2.80
2023-03-26T12:28:18.863Z,1.27
2023-03-26T12:31:02.624Z,2.90
2023-03-26T12:33:34.580Z,2.83
2023-03-26T12:36:20.545Z,4.80
2023-03-26T12:40:06.020Z,2.05
2023-03-26T12:42:36.633Z,4.10
2023-03-26T12:44:58.773Z,0.93
2023-03-26T12:48:00.105Z,1.30
2023-03-26T12:50:34.077Z,0.85
2023-03-26T12:53:28.344Z,1.80
2023-03-26T12:56:01.406Z,2.35
2023-03-26T12:58:38.322Z,1.33
2023-03-26T13:01:28.113Z,1.75
2023-03-26T13:04:22.377Z,2.92
2023-03-26T13:07:01.493Z,1.25
2023-03-26T13:10:08.677Z,4.68
2023-03-26T13:12:46.173Z,3.22
2023-03-26T13:15:47.608Z,2.22
2023-03-26T13:18:37.484Z,1.35
2023-03-26T13:21:33.588Z,0.90
2023-03-26T13:24:09.670Z,3.83
2023-03-26T13:26:39.440Z,3.08
2023-03-26T13:29:21.294Z,3.53
2023-03-26T13:32:18.759Z,3.28
2023-03-26T13:35:10.851Z,3.58
2023-03-26T13:37:49.845Z,3.28
2023-03-26T13:40:24.877Z,1.95
2023-03-26T13:43:07.782Z,1.98
2023-03-26T13:45:54.161Z,4.75
2023-03-26T13:48:55.881Z,3.20
2023-03-26T13:51:40.744Z,14.88
2023-03-26T13:54:31.240Z,10.80
2023-03-26T13:57:12.550Z,3.97
2023-03-26T13:59:48.634Z,2.63
2023-03-26T14:02:36.315Z,3.53
2023-03-26T14:05:21.489Z,5.40
2023-03-26T14:08:04.248Z,5.85
2023-03-26T14:10:37.965Z,12.80
2023-03-26T14:13:26.932Z,2.45
2023-03-26T14:16:04.124Z,1.92
2023-03-26T14:18:44.940Z,3.38
2023-03-26T14:21:28.935Z,2.30
2023-03-26T14:24:47.217Z,2.17
2023-03-26T14:27:37.398Z,3.72
2023-03-26T14:30:42.462Z,1.33
2023-03-26T14:33:39.875Z,1.60
2023-03-26T14:36:09.785Z,1.58
2023-03-26T14:39:05.361Z,2.20
2023-03-26T14:41:57.032Z,1.02
2023-03-26T14:45:04.105Z,1.98
2023-03-26T14:47:36.336Z,2.92
2023-03-26T14:50:40.436Z,2.63
2023-03-26T14:53:18.794Z,1.98
2023-03-26T14:55:52.186Z,2.00
2023-03-26T14:58:53.295Z,1.33
2023-03-26T15:01:47.346Z,1.60
2023-03-26T15:04:33.003Z,5.07
2023-03-26T15:07:22.371Z,1.30
2023-03-26T15:10:16.010Z,1.80
2023-03-26T15:13:31.455Z,1.60
2023-03-26T15:16:06.934Z,0.93
2023-03-26T15:18:46.104Z,3.50
2023-03-26T15:21:31.114Z,1.90
2023-03-26T15:24:14.084Z,2.30
2023-03-26T15:27:18.786Z,1.02
2023-03-26T15:30:03.693Z,3.13
2023-03-26T15:32:49.683Z,1.27
2023-03-26T15:35:17.006Z,2.55
2023-03-26T15:38:14.484Z,0.90
2023-03-26T15:40:51.246Z,0.98
2023-03-26T15:43:21.734Z,0.98
2023-03-26T15:46:07.500Z,1.45
2023-03-26T15:48:37.549Z,1.45
2023-03-26T15:51:15.411Z,1.52
2023-03-26T15:53:54.064Z,2.15
2023-03-26T15:56:26.078Z,2.63
2023-03-26T15:59:00.045Z,1.42
2023-03-26T16:01:47.531Z,1.83
2023-03-26T16:04:29.293Z,1.25
2023-03-26T16:07:03.635Z,1.80
2023-03-26T16:09:52.186Z,1.95
2023-03-26T16:12:45.228Z,2.53
2023-03-26T16:15:33.396Z,1.55
2023-03-26T16:18:10.387Z,2.10
2023-03-26T16:21:30.518Z,1.95
2023-03-26T16:24:08.485Z,2.55
2023-03-26T16:26:44.708Z,2.70
2023-03-26T16:29:15.188Z,1.85
2023-03-26T16:32:26.095Z,2.17
2023-03-26T16:35:04.857Z,1.95
2023-03-26T16:37:45.983Z,2.92
2023-03-26T16:40:20.731Z,1.75
2023-03-26T16:43:06.822Z,1.80
2023-03-26T16:45:58.133Z,2.53
2023-03-26T16:48:49.803Z,0.98
2023-03-26T16:51:42.291Z,2.70
2023-03-26T16:54:34.635Z,2.97
2023-03-26T16:57:10.269Z,1.45
2023-03-26T16:59:40.513Z,1.40
2023-03-26T17:02:19.933Z,1.50
2023-03-26T17:04:51.782Z,1.58
2023-03-26T17:07:35.286Z,1.63
2023-03-26T17:10:20.658Z,1.45
2023-03-26T17:13:09.731Z,1.95
2023-03-26T17:16:09.611Z,2.75
2023-03-26T17:18:56.392Z,2.40
2023-03-26T17:21:45.816Z,1.20
2023-03-26T17:24:54.803Z,1.63
2023-03-26T17:27:34.706Z,2.97
2023-03-26T17:30:21.614Z,2.75
2023-03-26T17:33:07.366Z,1.08
2023-03-26T17:35:40.706Z,1.48
2023-03-26T17:38:28.230Z,2.25
2023-03-26T17:40:59.772Z,1.98
2023-03-26T17:43:46.633Z,2.30
2023-03-26T17:46:41.304Z,1.63
2023-03-26T17:49:32.036Z,1.30
2023-03-26T17:52:04.808Z,2.97
2023-03-26T17:54:41.252Z,2.28
2023-03-26T17:57:18.746Z,1.60
2023-03-26T17:59:46.581Z,2.20
2023-03-26T18:02:17.053Z,2.05
2023-03-26T18:04:47.837Z,2.00
2023-03-26T18:07:41.850Z,2.85
2023-03-26T18:10:46.339Z,2.67
2023-03-26T18:13:58.611Z,2.67
2023-03-26T18:16:42.373Z,4.05
2023-03-26T18:19:19.217Z,2.33
2023-03-26T18:22:15.686Z,1.67
2023-03-26T18:24:44.001Z,1.65
2023-03-26T18:27:15.874Z,3.28
2023-03-26T18:29:45.442Z,2.47
2023-03-26T18:32:12.254Z,2.35
2023-03-26T18:34:46.636Z,3.20
2023-03-26T18:37:19.981Z,2.10
2023-03-26T18:40:11.902Z,2.35
2023-03-26T18:42:41.530Z,3.78
2023-03-26T18:45:24.093Z,1.92
2023-03-26T18:47:57.125Z,2.55
2023-03-26T18:50:39.648Z,2.30
2023-03-26T18:53:15.832Z,3.70
2023-03-26T18:55:44.486Z,1.48
2023-03-26T18:58:26.319Z,2.25
2023-03-26T19:01:00.578Z,3.33
2023-03-26T19:03:32.265Z,4.10
2023-03-26T19:06:02.384Z,3.33
2023-03-26T19:08:32.725Z,2.65
2023-03-26T19:11:04.904Z,3.60
2023-03-26T19:13:32.397Z,3.60
2023-03-26T19:16:01.281Z,8.30
2023-03-26T19:18:29.141Z,2.20
2023-03-26T19:20:59.538Z,2.45
2023-03-26T19:23:32.263Z,4.60
2023-03-26T19:26:02.606Z,2.97
2023-03-26T19:28:33.146Z,2.60
2023-03-26T19:31:19.116Z,2.47
2023-03-26T19:33:53.722Z,2.72
2023-03-26T19:36:23.426Z,3.40
2023-03-26T19:38:59.234Z,3.40
2023-03-26T19:41:42.323Z,3.50
2023-03-26T19:44:26.701Z,2.83
2023-03-26T19:47:02.373Z,2.08
2023-03-26T19:49:32.957Z,1.27
2023-03-26T19:52:15.217Z,3.10
2023-03-26T19:55:01.463Z,2.95
2023-03-26T19:57:33.288Z,2.38
2023-03-26T20:00:00.700Z,2.67
2023-03-26T20:02:28.679Z,2.65
2023-03-26T20:04:56.041Z,2.40
2023-03-26T20:07:35.686Z,1.77
2023-03-26T20:10:05.557Z,1.67
2023-03-26T20:12:32.891Z,1.33
2023-03-26T20:15:00.852Z,4.18
2023-03-26T20:17:30.962Z,2.50
2023-03-26T20:19:58.961Z,1.63
2023-03-26T20:22:26.811Z,3.03
2023-03-26T20:24:54.791Z,3.67
2023-03-26T20:27:22.421Z,1.98
2023-03-26T20:29:49.618Z,1.92
2023-03-26T20:32:26.333Z,5.25
2023-03-26T20:34:55.003Z,2.25
2023-03-26T20:37:22.110Z,1.20
2023-03-26T20:39:49.013Z,1.40
2023-03-26T20:42:16.437Z,2.13
2023-03-26T20:44:43.650Z,1.55
2023-03-26T20:47:11.726Z,1.45
2023-03-26T20:49:38.890Z,0.77
2023-03-26T20:52:06.009Z,2.58
2023-03-26T20:54:32.918Z,1.90
2023-03-26T20:56:59.925Z,3.65
2023-03-26T20:59:28.243Z,2.35
2023-03-26T21:01:57.906Z,1.95
2023-03-26T21:04:26.361Z,2.78
2023-03-26T21:06:57.592Z,2.03
2023-03-26T21:09:34.114Z,1.77
2023-03-26T21:12:03.010Z,1.73
2023-03-26T21:14:41.259Z,1.65
2023-03-26T21:17:17.484Z,1.73
2023-03-26T21:19:45.845Z,4.53
2023-03-26T21:22:51.469Z,1.80
2023-03-26T21:26:01.340Z,3.55
2023-03-26T21:28:41.864Z,2.20
2023-03-26T21:31:36.602Z,6.40
2023-03-26T21:34:05.595Z,1.60
2023-03-26T21:36:33.480Z,2.65
2023-03-26T21:39:01.297Z,2.47
2023-03-26T21:42:04.285Z,1.90
2023-03-26T21:44:34.078Z,1.98
2023-03-26T21:47:01.254Z,1.23
2023-03-26T21:49:28.649Z,2.28
2023-03-26T21:51:55.820Z,1.38
2023-03-26T21:54:26.382Z,1.35
2023-03-26T21:57:05.055Z,2.30
2023-03-26T22:00:11.035Z,1.33
2023-03-26T22:02:49.564Z,1.30
2023-03-26T22:05:48.203Z,2.80
2023-03-26T22:08:27.320Z,2.75
2023-03-26T22:10:54.309Z,3.38
2023-03-26T22:13:21.440Z,3.08
2023-03-26T22:15:49.468Z,1.50
2023-03-26T22:18:16.937Z,2.15
2023-03-26T22:20:46.597Z,3.05
2023-03-26T22:23:14.203Z,1.88
2023-03-26T22:25:41.442Z,1.58
2023-03-26T22:28:09.029Z,1.35
2023-03-26T22:30:36.132Z,1.77
2023-03-26T22:33:03.057Z,2.80
2023-03-26T22:35:30.260Z,5.35
2023-03-26T22:38:00.853Z,4.07
2023-03-26T22:40:28.465Z,2.92
2023-03-26T22:42:55.833Z,1.73
2023-03-26T22:45:23.635Z,2.55
2023-03-26T22:47:50.951Z,3.08
2023-03-26T22:50:17.874Z,2.70
2023-03-26T22:52:44.865Z,1.70
2023-03-26T22:55:11.882Z,1.35
2023-03-26T22:57:39.208Z,1.77
2023-03-26T23:00:19.482Z,1.45
2023-03-26T23:02:46.971Z,1.55
2023-03-26T23:05:17.451Z,1.73
2023-03-26T23:07:45.250Z,2.35
2023-03-26T23:10:13.001Z,2.72
2023-03-26T23:12:41.379Z,1.70
2023-03-26T23:15:09.757Z,2.70
2023-03-26T23:17:37.866Z,2.45
2023-03-26T23:20:13.496Z,3.28
2023-03-26T23:22:42.768Z,1.75
2023-03-26T23:25:11.907Z,3.33
2023-03-26T23:27:40.098Z,2.70
2023-03-26T23:30:11.021Z,1.58
2023-03-26T23:32:38.177Z,1.52
2023-03-26T23:35:06.065Z,2.03
2023-03-26T23:37:35.110Z,3.05
2023-03-26T23:40:07.430Z,2.08
2023-03-26T23:42:34.614Z,2.58
2023-03-26T23:45:02.095Z,2.90
2023-03-26T23:47:34.347Z,1.85
2023-03-26T23:50:05.053Z,2.47
2023-03-26T23:52:32.028Z,2.63
2023-03-26T23:55:02.054Z,2.17
2023-03-26T23:57:29.184Z,3.17
2023-03-26T23:59:56.266Z,2.40
